createdAt,value
2019-04-24T00:02:04.272Z,15.20
2019-04-24T00:04:54.739Z,15.20
2019-04-24T00:07:09.095Z,15.10
2019-04-24T00:09:44.874Z,15.10
2019-04-24T00:12:26.219Z,15.10
2019-04-24T00:15:20.967Z,15.00
2019-04-24T00:20:25.505Z,15.00
2019-04-24T00:22:53.426Z,15.00
2019-04-24T00:25:17.567Z,14.90
2019-04-24T00:27:56.243Z,14.90
2019-04-24T00:30:16.266Z,14.90
2019-04-24T00:32:56.863Z,15.00
2019-04-24T00:35:28.186Z,15.00
2019-04-24T00:37:58.223Z,15.10
2019-04-24T00:40:22.860Z,15.10
2019-04-24T00:43:14.544Z,15.10
2019-04-24T00:45:29.320Z,15.10
2019-04-24T00:50:25.968Z,15.10
2019-04-24T00:53:33.903Z,15.00
2019-04-24T00:55:39.308Z,15.00
2019-04-24T00:58:03.593Z,15.00
2019-04-24T01:06:11.310Z,15.00
2019-04-24T01:08:37.900Z,14.90
2019-04-24T01:11:29.648Z,14.90
2019-04-24T01:17:08.105Z,14.90
2019-04-24T01:19:37.228Z,14.90
2019-04-24T01:22:00.349Z,14.80
2019-04-24T01:29:18.800Z,14.90
2019-04-24T01:32:02.728Z,14.80
2019-04-24T01:37:30.621Z,14.80
2019-04-24T01:40:11.801Z,14.80
2019-04-24T01:42:58.923Z,14.80
2019-04-24T01:55:09.034Z,14.70
2019-04-24T02:00:31.435Z,14.70
2019-04-24T02:02:52.179Z,14.70
2019-04-24T02:08:22.166Z,14.70
2019-04-24T02:14:01.936Z,14.70
2019-04-24T02:16:13.928Z,14.70
2019-04-24T02:21:22.544Z,14.70
2019-04-24T02:23:50.226Z,14.70
2019-04-24T02:28:58.718Z,14.70
2019-04-24T02:34:08.335Z,14.70
2019-04-24T02:39:52.639Z,14.60
2019-04-24T02:42:25.699Z,14.60
2019-04-24T02:44:56.800Z,14.50
2019-04-24T02:50:04.270Z,14.30
2019-04-24T02:57:24.310Z,14.00
2019-04-24T02:59:54.386Z,13.90
2019-04-24T03:04:54.871Z,13.70
2019-04-24T03:07:47.907Z,13.70
2019-04-24T03:10:18.575Z,13.60
2019-04-24T03:15:37.227Z,13.50
2019-04-24T03:18:00.746Z,13.40
2019-04-24T03:23:22.017Z,13.40
2019-04-24T03:26:19.795Z,13.40
2019-04-24T03:31:23.454Z,13.50
2019-04-24T03:33:42.591Z,13.50
2019-04-24T03:43:40.907Z,13.60
2019-04-24T03:59:17.040Z,13.50
2019-04-24T04:04:45.288Z,13.50
2019-04-24T04:07:10.237Z,13.50
2019-04-24T04:12:58.902Z,13.50
2019-04-24T04:17:38.259Z,13.50
2019-04-24T04:25:29.337Z,13.60
2019-04-24T04:33:32.350Z,13.70
2019-04-24T04:35:56.767Z,13.80
2019-04-24T04:41:09.730Z,13.90
2019-04-24T04:49:00.278Z,14.20
2019-04-24T05:02:10.032Z,14.50
2019-04-24T05:04:37.228Z,14.40
2019-04-24T05:32:50.750Z,15.20
2019-04-24T05:35:03.661Z,15.20
2019-04-24T05:40:19.770Z,15.40
2019-04-24T05:42:55.545Z,15.40
2019-04-24T05:45:29.019Z,15.50
2019-04-24T05:47:59.085Z,15.70
2019-04-24T05:50:57.855Z,15.60
2019-04-24T05:53:31.317Z,15.80
2019-04-24T06:01:21.176Z,15.80
2019-04-24T06:06:49.018Z,16.00
2019-04-24T06:09:08.257Z,16.00
2019-04-24T06:11:45.003Z,16.10
2019-04-24T06:14:15.074Z,16.30
2019-04-24T06:17:01.691Z,16.20
2019-04-24T06:22:41.053Z,16.40
2019-04-24T06:30:00.149Z,16.60
2019-04-24T06:38:10.849Z,16.60
2019-04-24T06:43:39.647Z,16.40
2019-04-24T06:46:08.197Z,16.50
2019-04-24T06:48:37.939Z,16.50
2019-04-24T06:51:27.747Z,16.50
2019-04-24T06:54:01.126Z,16.40
2019-04-24T06:56:56.106Z,16.30
2019-04-24T06:59:03.974Z,16.40
2019-04-24T07:01:46.839Z,16.50
2019-04-24T07:06:49.361Z,16.40
2019-04-24T07:09:59.751Z,16.30
2019-04-24T07:12:49.107Z,16.30
2019-04-24T07:15:10.544Z,16.20
2019-04-24T07:17:51.901Z,16.10
2019-04-24T07:20:33.097Z,16.10
2019-04-24T07:23:26.203Z,16.20
2019-04-24T07:28:30.545Z,16.30
2019-04-24T07:31:27.019Z,16.30
2019-04-24T07:34:08.807Z,16.40
2019-04-24T07:39:14.822Z,16.60
2019-04-24T07:44:15.685Z,16.50
2019-04-24T07:46:47.348Z,16.60
2019-04-24T07:49:18.054Z,16.70
2019-04-24T07:54:35.827Z,16.90
2019-04-24T07:57:21.694Z,17.10
2019-04-24T08:00:03.233Z,17.10
2019-04-24T08:05:00.807Z,17.40
2019-04-24T08:07:46.147Z,17.50
2019-04-24T08:10:31.835Z,17.60
2019-04-24T08:13:18.872Z,17.50
2019-04-24T08:15:41.824Z,17.40
2019-04-24T08:18:12.363Z,17.50
2019-04-24T08:23:31.912Z,17.10
2019-04-24T08:25:49.305Z,17.00
2019-04-24T08:34:14.653Z,17.20
2019-04-24T08:36:11.019Z,17.30
2019-04-24T08:42:05.684Z,17.70
2019-04-24T08:44:30.929Z,17.90
2019-04-24T08:47:03.936Z,18.00
2019-04-24T08:49:36.486Z,18.20
2019-04-24T08:59:59.197Z,18.60
2019-04-24T09:02:47.968Z,18.60
2019-04-24T09:08:02.080Z,19.00
2019-04-24T09:13:06.798Z,19.10
2019-04-24T09:15:39.506Z,19.10
2019-04-24T09:18:03.397Z,19.30
2019-04-24T09:20:34.526Z,19.60
2019-04-24T09:23:13.722Z,19.60
2019-04-24T09:26:27.570Z,19.40
2019-04-24T09:28:49.365Z,19.40
2019-04-24T09:31:10.565Z,19.60
2019-04-24T09:39:06.035Z,20.20
2019-04-24T09:41:51.519Z,20.50
2019-04-24T09:44:03.955Z,20.70
2019-04-24T09:46:41.179Z,20.70
2019-04-24T09:49:17.047Z,20.60
2019-04-24T09:51:44.690Z,20.50
2019-04-24T09:54:28.087Z,20.50
2019-04-24T09:59:38.105Z,20.70
2019-04-24T10:02:32.891Z,21.00
2019-04-24T10:08:14.887Z,21.70
2019-04-24T10:10:42.028Z,22.10
2019-04-24T10:13:02.782Z,22.50
2019-04-24T10:15:48.157Z,22.60
2019-04-24T10:18:24.699Z,22.70
2019-04-24T10:21:12.850Z,23.00
2019-04-24T10:24:07.405Z,23.20
2019-04-24T10:26:27.306Z,23.70
2019-04-24T10:29:30.307Z,23.90
2019-04-24T10:32:12.642Z,24.00
2019-04-24T10:34:52.733Z,23.90
2019-04-24T10:43:07.229Z,24.70
2019-04-24T10:45:56.320Z,25.10
2019-04-24T10:48:14.851Z,25.70
2019-04-24T10:53:40.186Z,26.60
2019-04-24T10:56:16.746Z,27.00
2019-04-24T10:58:41.526Z,27.40
2019-04-24T11:01:23.464Z,27.70
2019-04-24T11:09:35.382Z,28.50
2019-04-24T11:12:11.066Z,28.60
2019-04-24T11:15:04.522Z,28.60
2019-04-24T11:20:17.967Z,28.30
2019-04-24T11:23:02.090Z,28.30
2019-04-24T11:25:52.686Z,28.30
2019-04-24T11:30:57.212Z,28.10
2019-04-24T11:33:45.568Z,28.10
2019-04-24T11:36:35.701Z,28.30
2019-04-24T11:44:26.317Z,30.20
2019-04-24T11:47:16.283Z,30.60
2019-04-24T11:49:38.080Z,30.40
2019-04-24T11:57:58.697Z,29.80
2019-04-24T11:59:50.872Z,30.50
2019-04-24T12:05:32.908Z,31.30
2019-04-24T12:08:07.021Z,31.90
2019-04-24T12:16:43.316Z,33.40
2019-04-24T12:19:03.854Z,34.00
2019-04-24T12:21:44.122Z,33.50
2019-04-24T12:29:07.180Z,36.10
2019-04-24T12:32:06.171Z,36.60
2019-04-24T12:34:47.628Z,37.00
2019-04-24T12:37:12.052Z,37.40
2019-04-24T12:39:55.811Z,37.70
2019-04-24T12:42:33.905Z,38.60
2019-04-24T12:44:50.370Z,39.70
2019-04-24T12:47:37.841Z,40.10
2019-04-24T12:50:13.380Z,39.40
2019-04-24T12:52:36.869Z,40.30
2019-04-24T12:55:21.734Z,40.30
2019-04-24T12:58:18.370Z,40.80
2019-04-24T13:01:07.775Z,40.10
2019-04-24T13:11:22.183Z,38.40
2019-04-24T13:14:07.573Z,39.20
2019-04-24T13:21:35.885Z,41.90
2019-04-24T13:24:16.826Z,42.30
2019-04-24T13:27:19.823Z,43.70
2019-04-24T13:29:56.413Z,43.90
2019-04-24T13:32:26.641Z,44.20
2019-04-24T13:35:11.033Z,44.30
2019-04-24T13:37:48.513Z,45.00
2019-04-24T13:40:02.788Z,46.00
2019-04-24T13:42:50.557Z,46.30
2019-04-24T13:47:58.051Z,44.50
2019-04-24T13:50:29.904Z,45.50
2019-04-24T13:55:29.807Z,46.20
2019-04-24T14:05:38.099Z,46.20
2019-04-24T14:08:20.867Z,46.10
2019-04-24T14:13:00.348Z,44.30
2019-04-24T14:15:46.979Z,43.50
2019-04-24T14:20:54.515Z,45.10
2019-04-24T14:23:35.329Z,45.80
2019-04-24T14:26:01.320Z,44.90
2019-04-24T14:31:07.217Z,46.70
2019-04-24T14:36:15.315Z,48.60
2019-04-24T14:38:57.530Z,49.30
2019-04-24T14:41:07.647Z,49.80
2019-04-24T14:51:34.693Z,50.30
2019-04-24T14:54:09.880Z,50.10
2019-04-24T14:56:35.661Z,49.30
2019-04-24T14:59:15.978Z,48.50
2019-04-24T15:04:11.889Z,46.80
2019-04-24T15:09:16.212Z,46.90
2019-04-24T15:12:02.764Z,46.30
2019-04-24T15:14:28.443Z,46.20
2019-04-24T15:17:18.872Z,46.00
2019-04-24T15:20:01.916Z,46.30
2019-04-24T15:27:23.906Z,46.70
2019-04-24T15:29:53.759Z,46.20
2019-04-24T15:35:15.354Z,45.00
2019-04-24T15:37:33.272Z,43.70
2019-04-24T15:42:36.101Z,44.30
2019-04-24T15:52:10.838Z,42.40
2019-04-24T15:54:40.791Z,43.00
2019-04-24T15:57:11.170Z,43.70
2019-04-24T16:00:06.565Z,43.10
2019-04-24T16:02:51.888Z,42.60
2019-04-24T16:04:54.469Z,41.00
2019-04-24T16:07:44.795Z,39.90
2019-04-24T16:10:21.561Z,39.50
2019-04-24T16:12:51.381Z,39.70
2019-04-24T16:15:58.701Z,40.20
2019-04-24T16:18:36.171Z,40.60
2019-04-24T16:21:06.886Z,40.30
2019-04-24T16:23:51.831Z,39.20
2019-04-24T16:25:56.027Z,38.40
2019-04-24T16:31:08.272Z,38.50
2019-04-24T16:36:14.282Z,38.80
2019-04-24T16:38:39.817Z,39.00
2019-04-24T16:41:10.182Z,38.10
2019-04-24T16:44:01.788Z,37.20
2019-04-24T16:46:47.811Z,36.10
2019-04-24T16:49:02.755Z,35.00
2019-04-24T16:51:56.913Z,33.70
2019-04-24T16:56:44.873Z,31.50
2019-04-24T16:59:02.560Z,30.10
2019-04-24T17:06:47.301Z,27.50
2019-04-24T17:09:21.632Z,27.20
2019-04-24T17:12:00.002Z,26.90
2019-04-24T17:25:01.159Z,25.40
2019-04-24T17:30:12.838Z,25.10
2019-04-24T17:35:22.530Z,24.90
2019-04-24T17:37:07.056Z,25.10
2019-04-24T17:39:42.316Z,25.10
2019-04-24T17:42:31.640Z,25.00
2019-04-24T17:45:22.242Z,24.80
2019-04-24T17:47:55.790Z,24.80
2019-04-24T17:50:21.410Z,24.70
2019-04-24T17:53:07.144Z,24.60
2019-04-24T17:55:23.706Z,24.40
2019-04-24T18:00:04.089Z,23.90
2019-04-24T18:02:34.610Z,23.60
2019-04-24T18:05:05.351Z,23.30
2019-04-24T18:07:35.137Z,23.00
2019-04-24T18:10:06.311Z,22.70
2019-04-24T18:12:35.975Z,22.50
2019-04-24T18:15:06.663Z,22.30
2019-04-24T18:17:36.369Z,22.10
2019-04-24T18:20:06.813Z,21.90
2019-04-24T18:22:40.225Z,21.70
2019-04-24T18:25:17.418Z,21.50
2019-04-24T18:27:47.443Z,21.40
2019-04-24T18:30:19.005Z,21.20
2019-04-24T18:32:48.725Z,21.10
2019-04-24T18:35:18.463Z,20.90
2019-04-24T18:37:48.153Z,20.80
2019-04-24T18:40:17.927Z,20.70
2019-04-24T18:42:47.782Z,20.60
2019-04-24T18:45:17.783Z,20.40
2019-04-24T18:47:47.565Z,20.40
2019-04-24T18:50:17.417Z,20.30
2019-04-24T18:52:50.177Z,20.20
2019-04-24T18:55:18.922Z,20.10
2019-04-24T18:57:48.609Z,20.00
2019-04-24T19:00:19.428Z,20.00
2019-04-24T19:02:49.078Z,19.90
2019-04-24T19:05:21.532Z,19.80
2019-04-24T19:07:50.397Z,19.80
2019-04-24T19:10:21.518Z,19.80
2019-04-24T19:12:51.957Z,19.70
2019-04-24T19:15:21.985Z,19.60
2019-04-24T19:17:55.138Z,19.60
2019-04-24T19:20:23.996Z,19.50
2019-04-24T19:23:02.465Z,19.50
2019-04-24T19:25:25.287Z,19.40
2019-04-24T19:27:54.996Z,19.30
2019-04-24T19:30:25.271Z,19.30
2019-04-24T19:32:55.032Z,19.20
2019-04-24T19:35:24.860Z,19.20
2019-04-24T19:37:54.565Z,19.10
2019-04-24T19:40:36.406Z,19.10
2019-04-24T19:42:55.680Z,19.00
2019-04-24T19:45:25.510Z,18.90
2019-04-24T19:47:55.183Z,18.90
2019-04-24T19:50:25.012Z,18.80
2019-04-24T19:52:54.826Z,18.70
2019-04-24T19:55:24.557Z,18.60
2019-04-24T19:57:54.330Z,18.60
2019-04-24T20:00:26.003Z,18.50
2019-04-24T20:02:55.679Z,18.40
2019-04-24T20:05:25.409Z,18.30
2019-04-24T20:07:55.422Z,18.30
2019-04-24T20:10:33.982Z,18.20
2019-04-24T20:13:04.043Z,18.20
2019-04-24T20:15:33.730Z,18.10
2019-04-24T20:18:03.470Z,18.00
2019-04-24T20:20:33.161Z,18.00
2019-04-24T20:23:02.864Z,17.90
2019-04-24T20:25:32.594Z,17.90
2019-04-24T20:28:02.335Z,17.80
2019-04-24T20:30:32.238Z,17.80
2019-04-24T20:33:01.901Z,17.80
2019-04-24T20:35:31.578Z,17.70
2019-04-24T20:38:02.419Z,17.70
2019-04-24T20:40:32.274Z,17.60
2019-04-24T20:43:03.921Z,17.60
2019-04-24T20:45:33.794Z,17.50
2019-04-24T20:48:03.507Z,17.50
2019-04-24T20:50:33.449Z,17.40
2019-04-24T20:53:03.116Z,17.40
2019-04-24T20:55:32.834Z,17.30
2019-04-24T20:58:02.522Z,17.30
2019-04-24T21:00:32.216Z,17.20
2019-04-24T21:03:03.095Z,17.20
2019-04-24T21:05:43.414Z,17.20
2019-04-24T21:08:20.243Z,17.10
2019-04-24T21:10:50.006Z,17.10
2019-04-24T21:13:21.573Z,17.00
2019-04-24T21:15:52.453Z,17.00
2019-04-24T21:18:22.196Z,17.00
2019-04-24T21:20:53.149Z,16.90
2019-04-24T21:23:23.378Z,16.90
2019-04-24T21:25:53.846Z,16.80
2019-04-24T21:28:25.548Z,16.80
2019-04-24T21:30:54.992Z,16.80
2019-04-24T21:33:25.486Z,16.80
2019-04-24T21:35:55.198Z,16.70
2019-04-24T21:38:26.883Z,16.70
2019-04-24T21:40:56.442Z,16.60
2019-04-24T21:43:29.784Z,16.60
2019-04-24T21:45:57.816Z,16.60
2019-04-24T21:48:27.993Z,16.60
2019-04-24T21:50:57.747Z,16.50
2019-04-24T21:53:27.417Z,16.50
2019-04-24T21:55:57.114Z,16.50
2019-04-24T21:58:27.085Z,16.40
2019-04-24T22:01:28.054Z,16.40
2019-04-24T22:04:02.739Z,16.40
2019-04-24T22:06:38.357Z,16.40
2019-04-24T22:09:12.899Z,16.30
2019-04-24T22:11:43.403Z,16.30
2019-04-24T22:14:13.743Z,16.30
2019-04-24T22:16:43.597Z,16.20
2019-04-24T22:19:13.412Z,16.20
2019-04-24T22:21:48.793Z,16.20
2019-04-24T22:24:31.659Z,16.20
2019-04-24T22:27:02.351Z,16.20
2019-04-24T22:29:32.980Z,16.10
2019-04-24T22:32:14.398Z,16.10
2019-04-24T22:34:48.701Z,16.10
2019-04-24T22:37:18.446Z,16.00
2019-04-24T22:39:54.705Z,16.00
2019-04-24T22:42:28.191Z,16.00
2019-04-24T22:45:21.509Z,16.00
2019-04-24T22:47:52.154Z,16.00
2019-04-24T22:50:24.989Z,16.00
2019-04-24T22:52:57.511Z,15.90
2019-04-24T22:55:52.705Z,15.90
2019-04-24T22:58:22.365Z,15.90
2019-04-24T23:00:56.469Z,15.90
2019-04-24T23:03:29.549Z,15.90
2019-04-24T23:06:01.427Z,15.80
2019-04-24T23:08:52.027Z,15.80
2019-04-24T23:11:27.162Z,15.80
2019-04-24T23:13:56.931Z,15.80
2019-04-24T23:16:31.156Z,15.80
2019-04-24T23:19:01.706Z,15.80
2019-04-24T23:21:44.090Z,15.80
2019-04-24T23:24:56.682Z,15.70
2019-04-24T23:27:53.103Z,15.70
2019-04-24T23:31:03.005Z,15.70
2019-04-24T23:33:38.212Z,15.60
2019-04-24T23:36:08.202Z,15.60
2019-04-24T23:38:37.963Z,15.60
2019-04-24T23:41:07.638Z,15.50
2019-04-24T23:43:38.305Z,15.50
2019-04-24T23:46:08.033Z,15.50
2019-04-24T23:48:37.760Z,15.60
2019-04-24T23:51:07.840Z,15.60
2019-04-24T23:53:37.594Z,15.70
2019-04-24T23:56:07.624Z,15.70
2019-04-24T23:58:37.774Z,15.80
